Akeley, Minnesota
Current Conditions -  °F | °C
As of 4:55 AM on Monday 20 Oct 2014 (Local Time) from KY49 Reporting Station
Clear Clear  
Wind Chill: 39°   Ceiling: Unl
Heat Index: 39°   Visibility: 10mi
Dew Point: 37°   Wind: 3mph
Humidity: 94%   Direction: 290°WNW
Pressure: 29.95"   Gusts: NA
Location:  47°N, 94.73°W
Report Text: KY49 200955Z AUTO 29003KT 10SM CLR 04/03 A2995 RMK AO2 T00390030
Loading
Personal Weather Stations






























Interactive Weather Map New forecast layout! Learn more

10-Day Weather Forecast

Advertisements
Track Severe Weather on mobile